Startpagina
METAR-TAF:

METAR-TAF

Vliegvelden :

Curaçao, Nederlandse Antillen

Curaçao International Airport

breedte: 12-12N, lengte: 068-58W, hoogte: 9 m

Actueel weer

Dit bericht is 28 minuten geleden gemaakt, om 08:00 UTC
Wind 1 kt uit variabele richting
Temperatuur 26°C
Vochtigheid 89%
Druk 1007 hPa
Zicht 10 km of meer
Verspreide wolken op 1700 ft

METAR: TNCC 180800Z VRB01KT 9999 SCT017 26/24 Q1007 NOSIG

Tijdstip: 04:28 (08:28 UTC)

Verwachting

Dit bericht is 4 uur en het 28 minuten geleden gemaakt, om 04:00 UTC
Verwachting geldig van 18 om 06 UTC tot 19 om 06 UTC
Wind 3 kt uit variabele richting
Zicht 10 km of meer
Verspreide wolken op 1800 ft
Tijdelijke
van 18 om 06 UTC tot 18 om 12 UTC
Zicht: 6000 m
Gebroken wolken op 1400 ft
regenbuien
Kans 40% :
Tijdelijke
van 18 om 06 UTC tot 18 om 12 UTC
Zicht: 3000 m
Verspreide wolken op 1200 ft, Cumulonimbus.
Gebroken wolken op 3000 ft
onweer, regen

TAF: TNCC 180400Z 1806/1906 VRB03KT 9999 SCT018 TEMPO 1806/1812 6000 SHRA BKN014 PROB40 TEMPO 1806/1812 3000 TSRA SCT012CB BKN030

Waarnemingen en weersverwachtingen van meer dan 4000 vliegvelden (METAR en TAF).

De beschikbare stations zijn de gele en rode punten op de kaart.

Ga met uw muis naar het station om de naam te zien.

Klik dan om waarnemingen en weersverwachtingen te zien.

kaart wijzigen: klik op de groene knoppen met een zwart kruis om in te zoomen, op de groene knop met een streepje om uit te zoomen of op de groene pijlen voor aangrenzende kaarten.


METAR-TAF: